Adri Lab — WDF2836 — position and weather

sailwx.info

Track history (hours):
 
Tides and Currents Weather Stations Pressure Air Temp Water Temp Dewpoint Dewpoint Depression Visibility Wind Speed Wind Dir Waves Ship Positions

Adri Lab

Owner: LABORDE BROTHERS CREWBOATS LLC, MORGAN CITY, LA. More information available from US FCC via Universal Licensing System and Coast Guard Vessel Documentation Center.

Last reported at 2018-Feb-17 11:03 UTC. Time now 2018-Feb-19 14:18 UTC.
Position N 29°39' W 092°16'.

Length 44 m; draft 2.5 m.

Type: Passenger vessel. MMSI: 268112000.

Date/timePositionNaut miles runAvg speedWind from/ knotsBaromVisibWave heightAir tempDewpointWater temp
2018-Feb-17 11:03N 29°39' W 092°16'122.9
2018-Feb-17 11:00N 29°39' W 092°16'918.1
2018-Feb-17 10:30N 29°47' W 092°10'1 2.0
2018-Feb-17 10:00N 29°48' W 092°09'0 0.0
2018-Feb-17 09:30N 29°48' W 092°09'2 4.3
2018-Feb-17 09:00N 29°47' W 092°11'0 0.0
2018-Feb-17 08:30N 29°47' W 092°11'0 0.0
2018-Feb-17 08:00N 29°47' W 092°11'0 0.0
2018-Feb-17 07:30N 29°47' W 092°11'9 0.4
2018-Feb-16 07:19N 29°38' W 092°16'412.4
2018-Feb-16 07:00N 29°42' W 092°15'611.8
2018-Feb-16 06:30N 29°46' W 092°10'2 4.0
2018-Feb-16 06:00N 29°48' W 092°09'0 0.0
2018-Feb-16 05:30N 29°48' W 092°09'0 0.0
2018-Feb-16 05:00N 29°48' W 092°09'0 0.0
2018-Feb-16 04:30N 29°48' W 092°09'0 0.0
2018-Feb-16 04:00N 29°48' W 092°09'0 0.0
2018-Feb-16 03:30N 29°48' W 092°09'0 0.0
2018-Feb-16 03:00N 29°48' W 092°09'0 0.1
2018-Feb-16 02:30N 29°47' W 092°09'0 0.0
2018-Feb-16 02:00N 29°47' W 092°09'0 0.0
2018-Feb-16 01:30N 29°47' W 092°09'0 0.0
2018-Feb-16 01:00N 29°47' W 092°09'0 0.0
2018-Feb-16 00:30N 29°47' W 092°09'0 0.0
2018-Feb-16 00:00N 29°47' W 092°09'0 0.0
2018-Feb-15 23:30N 29°47' W 092°09'0 0.0
2018-Feb-15 23:00N 29°47' W 092°09'0 0.0
2018-Feb-15 22:30N 29°47' W 092°09'0 0.0
2018-Feb-15 22:00N 29°47' W 092°09'0 0.1
2018-Feb-15 21:30N 29°47' W 092°09'2 4.5
2018-Feb-15 21:00N 29°47' W 092°11'0 0.0
2018-Feb-15 20:30N 29°47' W 092°11'0 0.0
2018-Feb-15 20:00N 29°47' W 092°11'0 0.0
2018-Feb-15 15:19N 29°47' W 092°11'0 0.0
2018-Feb-15 15:00N 29°47' W 092°11'0 0.0
2018-Feb-15 14:30N 29°47' W 092°11'0 0.0
2018-Feb-15 14:00N 29°47' W 092°11'0 0.0
2018-Feb-15 13:30N 29°47' W 092°11'0 0.0
2018-Feb-15 13:00N 29°47' W 092°11'0 0.0
2018-Feb-15 12:30N 29°47' W 092°11'0 0.2
2018-Feb-15 12:00N 29°47' W 092°11'0 0.0
2018-Feb-15 11:30N 29°47' W 092°11'0 0.0
2018-Feb-15 11:00N 29°47' W 092°11'0 0.0
2018-Feb-15 10:30N 29°47' W 092°11'0 0.0
2018-Feb-15 10:00N 29°47' W 092°11'0 0.0
2018-Feb-15 09:30N 29°47' W 092°11'0 0.0
2018-Feb-15 09:00N 29°47' W 092°11'0 0.0
2018-Feb-15 08:30N 29°47' W 092°11'0 0.0
2018-Feb-15 08:00N 29°47' W 092°11'0 0.0
2018-Feb-15 07:30N 29°47' W 092°11'0 0.0
2018-Feb-15 07:00N 29°47' W 092°11'0 0.0
2018-Feb-15 06:30N 29°47' W 092°11'0 0.0
2018-Feb-15 06:00N 29°47' W 092°11'0 0.0
2018-Feb-15 05:30N 29°47' W 092°11'0 0.0
2018-Feb-15 05:00N 29°47' W 092°11'0 0.0
2018-Feb-15 04:30N 29°47' W 092°11'0 0.0
2018-Feb-15 04:00N 29°47' W 092°11'0 0.0
2018-Feb-15 03:30N 29°47' W 092°11'0 0.0
2018-Feb-15 03:00N 29°47' W 092°11'0 0.0
2018-Feb-15 02:30N 29°47' W 092°11'0 0.0
2018-Feb-15 02:00N 29°47' W 092°11'0 0.0
2018-Feb-15 01:30N 29°47' W 092°11'0 0.3
2018-Feb-15 01:00N 29°47' W 092°11'1 1.8
2018-Feb-15 00:30N 29°47' W 092°10'1 1.9
2018-Feb-15 00:00N 29°47' W 092°09'3 6.9
2018-Feb-14 23:30N 29°45' W 092°12'  
Track history (hours):
 
Tides and Currents Weather Stations Pressure Air Temp Water Temp Dewpoint Dewpoint Depression Visibility Wind Speed Wind Dir Waves Ship Positions

Adri Lab

Owner: LABORDE BROTHERS CREWBOATS LLC, MORGAN CITY, LA. More information available from US FCC via Universal Licensing System and Coast Guard Vessel Documentation Center.

Last reported at 2018-Feb-17 11:03 UTC. Time now 2018-Feb-19 14:18 UTC.
Position N 29°39' W 092°16'.

Length 44 m; draft 2.5 m.

Type: Passenger vessel. MMSI: 268112000.

Date/timePositionNaut miles runAvg speedWind from/ knotsBaromVisibWave heightAir tempDewpointWater temp
2018-Feb-17 11:03N 29°39' W 092°16'122.9
2018-Feb-17 11:00N 29°39' W 092°16'918.1
2018-Feb-17 10:30N 29°47' W 092°10'1 2.0
2018-Feb-17 10:00N 29°48' W 092°09'0 0.0
2018-Feb-17 09:30N 29°48' W 092°09'2 4.3
2018-Feb-17 09:00N 29°47' W 092°11'0 0.0
2018-Feb-17 08:30N 29°47' W 092°11'0 0.0
2018-Feb-17 08:00N 29°47' W 092°11'0 0.0
2018-Feb-17 07:30N 29°47' W 092°11'9 0.4
2018-Feb-16 07:19N 29°38' W 092°16'412.4
2018-Feb-16 07:00N 29°42' W 092°15'611.8
2018-Feb-16 06:30N 29°46' W 092°10'2 4.0
2018-Feb-16 06:00N 29°48' W 092°09'0 0.0
2018-Feb-16 05:30N 29°48' W 092°09'0 0.0
2018-Feb-16 05:00N 29°48' W 092°09'0 0.0
2018-Feb-16 04:30N 29°48' W 092°09'0 0.0
2018-Feb-16 04:00N 29°48' W 092°09'0 0.0
2018-Feb-16 03:30N 29°48' W 092°09'0 0.0
2018-Feb-16 03:00N 29°48' W 092°09'0 0.1
2018-Feb-16 02:30N 29°47' W 092°09'0 0.0
2018-Feb-16 02:00N 29°47' W 092°09'0 0.0
2018-Feb-16 01:30N 29°47' W 092°09'0 0.0
2018-Feb-16 01:00N 29°47' W 092°09'0 0.0
2018-Feb-16 00:30N 29°47' W 092°09'0 0.0
2018-Feb-16 00:00N 29°47' W 092°09'0 0.0
2018-Feb-15 23:30N 29°47' W 092°09'0 0.0
2018-Feb-15 23:00N 29°47' W 092°09'0 0.0
2018-Feb-15 22:30N 29°47' W 092°09'0 0.0
2018-Feb-15 22:00N 29°47' W 092°09'0 0.1
2018-Feb-15 21:30N 29°47' W 092°09'2 4.5
2018-Feb-15 21:00N 29°47' W 092°11'0 0.0
2018-Feb-15 20:30N 29°47' W 092°11'0 0.0
2018-Feb-15 20:00N 29°47' W 092°11'0 0.0
2018-Feb-15 15:19N 29°47' W 092°11'0 0.0
2018-Feb-15 15:00N 29°47' W 092°11'0 0.0
2018-Feb-15 14:30N 29°47' W 092°11'0 0.0
2018-Feb-15 14:00N 29°47' W 092°11'0 0.0
2018-Feb-15 13:30N 29°47' W 092°11'0 0.0
2018-Feb-15 13:00N 29°47' W 092°11'0 0.0
2018-Feb-15 12:30N 29°47' W 092°11'0 0.2
2018-Feb-15 12:00N 29°47' W 092°11'0 0.0
2018-Feb-15 11:30N 29°47' W 092°11'0 0.0
2018-Feb-15 11:00N 29°47' W 092°11'0 0.0
2018-Feb-15 10:30N 29°47' W 092°11'0 0.0
2018-Feb-15 10:00N 29°47' W 092°11'0 0.0
2018-Feb-15 09:30N 29°47' W 092°11'0 0.0
2018-Feb-15 09:00N 29°47' W 092°11'0 0.0
2018-Feb-15 08:30N 29°47' W 092°11'0 0.0
2018-Feb-15 08:00N 29°47' W 092°11'0 0.0
2018-Feb-15 07:30N 29°47' W 092°11'0 0.0
2018-Feb-15 07:00N 29°47' W 092°11'0 0.0
2018-Feb-15 06:30N 29°47' W 092°11'0 0.0
2018-Feb-15 06:00N 29°47' W 092°11'0 0.0
2018-Feb-15 05:30N 29°47' W 092°11'0 0.0
2018-Feb-15 05:00N 29°47' W 092°11'0 0.0
2018-Feb-15 04:30N 29°47' W 092°11'0 0.0
2018-Feb-15 04:00N 29°47' W 092°11'0 0.0
2018-Feb-15 03:30N 29°47' W 092°11'0 0.0
2018-Feb-15 03:00N 29°47' W 092°11'0 0.0
2018-Feb-15 02:30N 29°47' W 092°11'0 0.0
2018-Feb-15 02:00N 29°47' W 092°11'0 0.0
2018-Feb-15 01:30N 29°47' W 092°11'0 0.3
2018-Feb-15 01:00N 29°47' W 092°11'1 1.8
2018-Feb-15 00:30N 29°47' W 092°10'1 1.9
2018-Feb-15 00:00N 29°47' W 092°09'3 6.9
2018-Feb-14 23:30N 29°45' W 092°12'  

Dump ship's entire track history